Time;durP1;ratioP1;P1;durP2;ratioP2;P2;SDS_P1;SDS_P2;PMS_P1;PMS_P2;Temp;Humidity;BMP_temperature;BMP_pressure;BME280_temperature;BME280_humidity;BME280_pressure;Samples;Min_cycle;Max_cycle;Signal;HPM_P1;HPM_P2
2021/01/15 00:00:46;;;;;;;2.53;2.22;;;9.50;83.10;;;;;;5087440;28;20042;-42
2021/01/15 00:03:12;;;;;;;2.70;2.20;;;9.50;83.00;;;;;;5087451;28;20032;-42
2021/01/15 00:05:39;;;;;;;2.72;2.10;;;9.50;83.00;;;;;;5087371;28;20027;-42
2021/01/15 00:08:06;;;;;;;2.03;1.83;;;9.50;82.90;;;;;;5087456;28;20052;-42
2021/01/15 00:10:32;;;;;;;3.63;1.70;;;9.50;82.90;;;;;;5091393;28;20296;-42
2021/01/15 00:12:58;;;;;;;2.35;1.95;;;9.50;82.90;;;;;;5093264;28;20120;-42
2021/01/15 00:15:27;;;;;;;3.65;1.88;;;9.50;82.90;;;;;;5087195;28;20028;-42
2021/01/15 00:17:53;;;;;;;3.28;2.25;;;9.50;82.70;;;;;;5086013;28;20021;-42
2021/01/15 00:20:19;;;;;;;2.67;2.00;;;9.50;82.60;;;;;;5087225;28;20029;-42
2021/01/15 00:22:45;;;;;;;3.25;1.90;;;9.50;82.60;;;;;;5086939;28;20017;-42
2021/01/15 00:25:11;;;;;;;2.78;2.10;;;9.40;82.50;;;;;;5087109;28;20020;-42
2021/01/15 00:27:38;;;;;;;2.30;1.65;;;9.50;82.50;;;;;;5088414;28;20024;-42
2021/01/15 00:30:09;;;;;;;2.50;2.05;;;9.50;82.40;;;;;;5086826;28;20048;-43
2021/01/15 00:32:36;;;;;;;2.00;1.80;;;9.40;82.40;;;;;;5085319;28;20025;-42
2021/01/15 00:35:03;;;;;;;2.45;1.92;;;9.50;82.30;;;;;;5086952;28;20036;-42
2021/01/15 00:37:29;;;;;;;2.47;1.70;;;9.40;82.30;;;;;;5086927;28;20043;-43
2021/01/15 00:39:55;;;;;;;2.60;2.00;;;9.40;82.30;;;;;;5086461;28;20029;-43
2021/01/15 00:42:21;;;;;;;3.33;2.30;;;9.40;82.20;;;;;;5096324;28;20034;-42
2021/01/15 00:44:47;;;;;;;2.40;2.10;;;9.40;82.10;;;;;;5106977;28;20039;-43
2021/01/15 00:47:14;;;;;;;2.08;1.88;;;9.40;81.90;;;;;;5105684;28;20085;-42
2021/01/15 00:49:40;;;;;;;2.23;1.80;;;9.40;82.00;;;;;;5106981;28;20032;-42
2021/01/15 00:52:06;;;;;;;2.45;2.08;;;9.40;81.90;;;;;;5092202;28;20259;-42
2021/01/15 00:54:32;;;;;;;2.67;2.00;;;9.40;81.80;;;;;;5086677;28;20146;-42
2021/01/15 00:56:59;;;;;;;2.47;1.90;;;9.40;81.80;;;;;;5086346;28;20057;-42
2021/01/15 00:59:25;;;;;;;2.17;1.77;;;9.40;81.70;;;;;;5085028;28;20419;-42
2021/01/15 01:01:52;;;;;;;2.38;2.00;;;9.40;81.80;;;;;;5086413;28;20043;-42
2021/01/15 01:04:18;;;;;;;2.70;2.08;;;9.40;81.70;;;;;;5086281;28;20036;-42
2021/01/15 01:06:44;;;;;;;2.70;2.10;;;9.30;81.60;;;;;;5086231;28;20093;-42
2021/01/15 01:09:10;;;;;;;1.92;1.65;;;9.30;81.50;;;;;;5086185;28;20032;-42
2021/01/15 01:11:36;;;;;;;2.92;2.22;;;9.30;81.50;;;;;;5091348;28;20051;-42
2021/01/15 01:14:05;;;;;;;3.20;2.30;;;9.30;81.40;;;;;;5106140;28;20091;-42
2021/01/15 01:16:32;;;;;;;1.80;1.70;;;9.30;81.40;;;;;;5106401;28;20012;-42
2021/01/15 01:18:58;;;;;;;4.83;1.90;;;9.30;81.20;;;;;;5106436;28;20080;-42
2021/01/15 01:21:25;;;;;;;2.05;1.80;;;9.30;81.30;;;;;;5105177;28;20347;-42
2021/01/15 01:23:51;;;;;;;2.37;1.87;;;9.30;81.20;;;;;;5106227;28;20107;-42
2021/01/15 01:26:17;;;;;;;2.75;2.15;;;9.20;81.80;;;;;;5106091;28;20264;-42
2021/01/15 01:28:45;;;;;;;3.05;2.00;;;9.20;81.10;;;;;;5106197;28;20035;-42
2021/01/15 01:31:11;;;;;;;3.33;2.25;;;9.20;81.10;;;;;;5106423;28;20028;-43
2021/01/15 01:33:39;;;;;;;2.58;2.10;;;9.20;81.10;;;;;;5106011;28;20384;-42
2021/01/15 01:36:08;;;;;;;2.50;1.85;;;9.20;81.10;;;;;;5106181;28;20034;-42
2021/01/15 01:38:34;;;;;;;2.17;1.92;;;9.20;81.20;;;;;;5106080;28;20032;-42
2021/01/15 01:41:00;;;;;;;2.40;2.13;;;9.20;81.10;;;;;;5105050;28;20035;-42
2021/01/15 01:43:27;;;;;;;3.30;2.17;;;9.20;81.20;;;;;;5087486;28;20052;-42
2021/01/15 01:45:53;;;;;;;2.83;1.95;;;9.20;81.10;;;;;;5085605;28;20032;-42
2021/01/15 01:48:19;;;;;;;2.67;2.10;;;9.10;81.10;;;;;;5084249;28;20098;-43
2021/01/15 01:50:48;;;;;;;3.22;2.05;;;9.10;81.10;;;;;;5067311;28;20039;-42
2021/01/15 01:53:17;;;;;;;2.22;2.03;;;9.10;81.10;;;;;;5085239;28;20021;-42
2021/01/15 01:55:44;;;;;;;2.70;2.13;;;9.10;81.10;;;;;;5083801;28;20032;-43
2021/01/15 01:58:14;;;;;;;2.53;1.80;;;9.10;81.10;;;;;;5085379;28;20028;-42
2021/01/15 02:00:40;;;;;;;3.08;2.28;;;9.10;81.10;;;;;;5085244;28;20108;-43
2021/01/15 02:03:07;;;;;;;2.38;1.92;;;9.10;81.20;;;;;;5085043;28;20040;-42
2021/01/15 02:05:33;;;;;;;2.78;2.10;;;9.10;81.10;;;;;;5085223;28;20113;-42
2021/01/15 02:07:59;;;;;;;3.03;2.13;;;9.10;81.20;;;;;;5083882;28;20067;-42
2021/01/15 02:10:33;;;;;;;3.20;2.30;;;9.00;81.10;;;;;;5067467;28;20032;-42
2021/01/15 02:12:59;;;;;;;3.00;2.17;;;9.00;81.20;;;;;;5081972;28;20547;-42
2021/01/15 02:15:45;;;;;;;2.80;2.13;;;9.00;81.20;;;;;;5105231;28;20472;-42
2021/01/15 02:18:22;;;;;;;3.45;2.42;;;9.00;81.30;;;;;;5103585;28;20035;-42
2021/01/15 02:21:20;;;;;;;3.10;2.70;;;9.00;81.30;;;;;;5103876;28;20028;-43
2021/01/15 02:23:47;;;;;;;3.65;2.65;;;9.00;81.30;;;;;;5103768;28;20020;-42
2021/01/15 02:26:46;;;;;;;2.80;2.37;;;9.00;81.30;;;;;;5087210;28;20032;-42
2021/01/15 02:29:39;;;;;;;2.85;2.35;;;9.00;81.40;;;;;;5042207;28;20049;-42
2021/01/15 02:32:36;;;;;;;3.22;2.25;;;9.00;81.50;;;;;;5039624;28;20089;-42
2021/01/15 02:35:24;;;;;;;2.97;2.35;;;8.90;81.30;;;;;;5025450;28;20021;-42
2021/01/15 02:38:25;;;;;;;2.95;2.40;;;8.90;81.40;;;;;;5025851;28;20055;-42
2021/01/15 02:41:23;;;;;;;2.72;2.10;;;8.90;81.40;;;;;;5041686;28;20097;-42
2021/01/15 02:43:50;;;;;;;2.50;2.30;;;8.90;81.40;;;;;;5032126;28;20022;-42
2021/01/15 02:46:18;;;;;;;3.03;1.98;;;8.90;81.50;;;;;;5025153;28;20033;-42
2021/01/15 02:48:47;;;;;;;2.40;1.83;;;8.90;81.50;;;;;;5041832;28;20030;-42
2021/01/15 02:51:13;;;;;;;3.33;2.38;;;8.90;81.50;;;;;;5041631;28;20061;-42
2021/01/15 02:53:40;;;;;;;2.67;2.08;;;8.90;81.50;;;;;;5041319;28;20025;-43
2021/01/15 02:56:06;;;;;;;2.85;2.20;;;8.80;81.50;;;;;;5041476;28;20107;-42
2021/01/15 02:58:32;;;;;;;1.77;1.60;;;8.80;81.60;;;;;;5041340;28;20045;-42
2021/01/15 03:00:58;;;;;;;2.70;2.30;;;8.80;81.60;;;;;;5041510;28;20273;-42
2021/01/15 03:03:39;;;;;;;3.08;2.25;;;8.80;81.60;;;;;;5041620;28;20044;-42
2021/01/15 03:06:11;;;;;;;3.13;2.13;;;8.80;81.70;;;;;;5062551;28;20174;-42
2021/01/15 03:08:37;;;;;;;2.85;2.42;;;8.80;81.50;;;;;;5062607;28;20025;-42
2021/01/15 03:11:04;;;;;;;2.92;2.20;;;8.80;81.60;;;;;;5066504;28;20123;-42
2021/01/15 03:13:30;;;;;;;2.30;1.93;;;8.80;81.60;;;;;;5101491;28;20024;-42
2021/01/15 03:15:57;;;;;;;2.90;2.20;;;8.80;81.60;;;;;;5100794;28;20073;-42
2021/01/15 03:18:24;;;;;;;3.30;2.30;;;8.70;81.50;;;;;;5083955;28;20029;-42
2021/01/15 03:20:50;;;;;;;3.58;2.80;;;8.70;81.50;;;;;;5082523;28;20469;-41
2021/01/15 03:23:16;;;;;;;2.92;2.03;;;8.70;81.50;;;;;;5082694;28;20032;-42
2021/01/15 03:25:42;;;;;;;2.85;2.42;;;8.70;81.50;;;;;;5083412;28;20562;-42
2021/01/15 03:28:08;;;;;;;3.10;2.55;;;8.70;81.60;;;;;;5083675;28;20032;-42
2021/01/15 03:30:34;;;;;;;3.22;2.60;;;8.70;81.60;;;;;;5082834;28;20087;-42
2021/01/15 03:33:02;;;;;;;3.50;2.90;;;8.70;81.70;;;;;;5082489;28;20016;-42
2021/01/15 03:35:28;;;;;;;;;;;8.70;81.70;;;;;;5083913;28;20035;-42
2021/01/15 03:37:59;;;;;;;3.17;2.17;;;8.70;81.70;;;;;;5083800;28;19911;-42
2021/01/15 03:40:33;;;;;;;3.00;2.50;;;8.60;81.60;;;;;;5084191;28;20035;-42
2021/01/15 03:42:59;;;;;;;3.20;2.53;;;8.60;81.70;;;;;;5098073;28;20028;-42
2021/01/15 03:45:26;;;;;;;3.22;2.80;;;8.60;81.70;;;;;;5103723;28;20016;-42
2021/01/15 03:47:52;;;;;;;3.33;2.70;;;8.60;81.80;;;;;;5103855;28;20039;-42
2021/01/15 03:50:18;;;;;;;3.58;2.65;;;8.60;81.80;;;;;;5103884;28;20040;-42
2021/01/15 03:52:46;;;;;;;3.63;2.83;;;8.60;82.50;;;;;;5103820;28;20043;-42
2021/01/15 03:55:13;;;;;;;3.40;2.75;;;8.60;81.80;;;;;;5095262;28;20024;-42
2021/01/15 03:57:39;;;;;;;2.90;2.63;;;8.60;81.80;;;;;;5083283;28;20056;-42
2021/01/15 04:00:06;;;;;;;3.78;2.70;;;8.50;81.70;;;;;;5083618;28;20028;-42
2021/01/15 04:02:32;;;;;;;3.38;2.45;;;8.50;81.80;;;;;;5083373;28;20029;-42
2021/01/15 04:04:58;;;;;;;3.70;2.75;;;8.50;81.70;;;;;;5083269;28;20484;-42
2021/01/15 04:07:25;;;;;;;3.55;2.63;;;8.50;81.80;;;;;;5083220;28;20476;-42
2021/01/15 04:09:51;;;;;;;3.57;2.80;;;8.50;81.80;;;;;;5082118;28;20455;-42
2021/01/15 04:12:17;;;;;;;3.65;2.65;;;8.50;81.80;;;;;;5092508;28;20179;-42
2021/01/15 04:14:43;;;;;;;3.17;2.67;;;8.50;81.90;;;;;;5103640;28;20024;-42
2021/01/15 04:17:10;;;;;;;3.50;2.60;;;8.50;81.80;;;;;;5101850;28;20020;-41
2021/01/15 04:19:36;;;;;;;3.55;2.80;;;8.50;81.80;;;;;;5103619;28;20055;-42
2021/01/15 04:22:02;;;;;;;4.50;3.25;;;8.40;81.80;;;;;;5103364;28;20077;-42
2021/01/15 04:24:28;;;;;;;4.18;3.08;;;8.40;81.80;;;;;;5103597;28;20024;-42
2021/01/15 04:26:55;;;;;;;3.00;2.30;;;8.40;81.80;;;;;;5103129;28;20542;-42
2021/01/15 04:29:22;;;;;;;4.22;3.00;;;8.40;81.80;;;;;;5098595;28;20060;-42
2021/01/15 04:31:48;;;;;;;3.35;2.92;;;8.40;81.90;;;;;;5082012;28;20037;-42
2021/01/15 04:34:14;;;;;;;4.03;2.88;;;8.40;81.90;;;;;;5081939;28;20025;-41
2021/01/15 04:36:41;;;;;;;3.33;2.75;;;8.40;81.90;;;;;;5082909;28;20017;-42
2021/01/15 04:39:07;;;;;;;3.30;2.77;;;8.40;82.00;;;;;;5085826;28;20028;-41
2021/01/15 04:41:33;;;;;;;3.70;2.72;;;8.40;81.90;;;;;;5087270;28;20261;-42
2021/01/15 04:44:00;;;;;;;3.13;2.20;;;8.30;81.90;;;;;;5107192;28;20024;-41
2021/01/15 04:46:26;;;;;;;4.28;2.80;;;8.30;81.90;;;;;;5106693;28;20035;-43
2021/01/15 04:48:54;;;;;;;4.07;2.83;;;8.30;81.90;;;;;;5107056;28;20055;-41
2021/01/15 04:51:21;;;;;;;4.00;2.85;;;8.30;81.90;;;;;;5105515;28;20036;-41
2021/01/15 04:54:09;;;;;;;;;;;8.30;81.90;;;;;;5086989;28;20108;-42
2021/01/15 04:56:54;;;;;;;4.22;2.97;;;8.30;81.90;;;;;;5086140;28;19919;-41
2021/01/15 04:59:20;;;;;;;3.75;2.70;;;8.30;81.90;;;;;;5085350;28;20056;-42
2021/01/15 05:01:47;;;;;;;4.03;3.17;;;8.30;81.90;;;;;;5068488;28;20008;-42
2021/01/15 05:04:18;;;;;;;4.35;2.90;;;8.30;81.90;;;;;;5085288;28;20770;-41
2021/01/15 05:06:48;;;;;;;3.10;2.63;;;8.20;81.90;;;;;;5086259;28;20028;-41
2021/01/15 05:09:18;;;;;;;3.38;2.63;;;8.20;81.90;;;;;;5084956;28;20036;-42
2021/01/15 05:11:45;;;;;;;4.47;2.63;;;8.20;81.90;;;;;;5093511;28;20077;-42
2021/01/15 05:14:13;;;;;;;3.67;2.70;;;8.20;82.00;;;;;;5106682;28;20490;-42
2021/01/15 05:16:41;;;;;;;5.70;2.80;;;8.20;81.90;;;;;;5106201;28;20028;-41
2021/01/15 05:19:08;;;;;;;4.40;2.80;;;8.20;82.00;;;;;;5105295;28;20031;-41
2021/01/15 05:21:35;;;;;;;;;;;8.20;82.00;;;;;;5106858;28;20476;-42
2021/01/15 05:24:01;;;;;;;3.63;2.72;;;8.20;82.00;;;;;;5106510;28;19908;-41
2021/01/15 05:26:27;;;;;;;4.05;2.75;;;8.20;82.00;;;;;;5105050;28;20028;-41
2021/01/15 05:28:53;;;;;;;4.82;3.20;;;8.20;82.00;;;;;;5106115;28;20039;-42
2021/01/15 05:31:21;;;;;;;3.50;2.83;;;8.20;82.10;;;;;;5106084;28;20036;-41
2021/01/15 05:34:16;;;;;;;;;;;8.10;82.00;;;;;;5106739;28;20016;-42
2021/01/15 05:36:42;;;;;;;4.28;2.90;;;8.10;82.00;;;;;;5100913;28;19966;-42
2021/01/15 05:39:25;;;;;;;3.30;2.70;;;8.10;82.00;;;;;;5106180;28;20024;-41
2021/01/15 05:42:01;;;;;;;4.00;2.70;;;8.10;82.00;;;;;;5100204;28;20353;-41
2021/01/15 05:44:31;;;;;;;3.65;2.80;;;8.10;82.00;;;;;;5085882;28;20036;-41
2021/01/15 05:46:59;;;;;;;4.32;2.95;;;8.10;82.00;;;;;;5083954;28;20039;-41
2021/01/15 05:49:26;;;;;;;4.45;3.10;;;8.10;82.10;;;;;;5085639;28;20036;-41
2021/01/15 05:51:52;;;;;;;4.07;3.20;;;8.10;82.20;;;;;;5085650;28;20031;-41
2021/01/15 05:54:30;;;;;;;3.72;2.90;;;8.00;82.10;;;;;;5084375;28;20029;-42
2021/01/15 05:56:56;;;;;;;3.80;2.90;;;8.00;82.00;;;;;;5085338;28;20087;-41
2021/01/15 05:59:22;;;;;;;3.60;2.88;;;8.00;82.10;;;;;;5085247;28;20032;-41
2021/01/15 06:01:58;;;;;;;3.45;3.03;;;8.00;82.20;;;;;;5085362;28;20039;-41
2021/01/15 06:04:37;;;;;;;4.53;3.17;;;8.00;82.10;;;;;;5085414;28;20024;-41
2021/01/15 06:07:09;;;;;;;4.13;3.03;;;8.00;82.10;;;;;;5085507;28;20043;-41
2021/01/15 06:09:43;;;;;;;3.50;2.70;;;8.00;82.10;;;;;;5085267;28;20025;-41
2021/01/15 06:12:19;;;;;;;3.50;2.80;;;8.00;82.10;;;;;;5093141;28;20495;-41
2021/01/15 06:14:57;;;;;;;3.38;2.63;;;8.00;82.10;;;;;;5104156;28;20039;-41
2021/01/15 06:17:25;;;;;;;3.13;2.50;;;8.00;82.20;;;;;;5103826;28;20035;-41
2021/01/15 06:19:53;;;;;;;4.70;3.17;;;8.00;82.20;;;;;;5105604;28;20032;-41
2021/01/15 06:22:47;;;;;;;4.53;3.40;;;7.90;82.20;;;;;;5103981;28;20028;-41
2021/01/15 06:25:24;;;;;;;3.53;2.70;;;7.90;82.20;;;;;;5104002;28;20062;-41
2021/01/15 06:27:55;;;;;;;3.78;2.97;;;7.90;82.20;;;;;;5104909;28;20106;-41
2021/01/15 06:30:25;;;;;;;4.20;2.95;;;7.90;82.20;;;;;;5104779;28;20043;-41
2021/01/15 06:32:52;;;;;;;3.75;3.08;;;7.90;82.30;;;;;;5105094;28;20107;-41
2021/01/15 06:35:25;;;;;;;4.03;3.08;;;7.90;82.30;;;;;;5105213;28;20024;-41
2021/01/15 06:38:10;;;;;;;3.70;3.15;;;7.90;82.30;;;;;;5101021;28;20025;-41
2021/01/15 06:40:37;;;;;;;3.70;3.03;;;7.90;82.20;;;;;;5070394;28;20210;-41
2021/01/15 06:43:10;;;;;;;4.70;3.47;;;7.90;82.30;;;;;;5099644;28;20082;-41
2021/01/15 06:45:41;;;;;;;3.25;2.67;;;7.90;82.30;;;;;;5104874;28;20605;-41
2021/01/15 06:48:09;;;;;;;3.75;3.00;;;7.80;82.20;;;;;;5104693;28;20062;-41
2021/01/15 06:50:43;;;;;;;4.18;2.80;;;7.80;82.30;;;;;;5104733;28;20085;-41
2021/01/15 06:53:20;;;;;;;3.95;3.08;;;7.80;82.30;;;;;;5088701;28;20063;-41
2021/01/15 06:55:48;;;;;;;4.03;2.92;;;7.80;82.30;;;;;;5063095;28;20093;-41
2021/01/15 06:58:25;;;;;;;4.78;3.33;;;7.80;82.30;;;;;;5062903;28;20021;-41
2021/01/15 07:01:17;;;;;;;4.80;3.30;;;7.80;82.30;;;;;;5064260;28;20017;-41
2021/01/15 07:04:03;;;;;;;3.90;2.88;;;7.70;82.30;;;;;;5062853;28;20032;-41
2021/01/15 07:06:32;;;;;;;5.40;3.00;;;7.80;82.30;;;;;;5074956;28;20029;-41
2021/01/15 07:09:02;;;;;;;3.92;2.97;;;7.80;82.30;;;;;;5083929;28;20036;-41
2021/01/15 07:11:29;;;;;;;4.03;3.00;;;7.70;82.30;;;;;;5086310;28;20020;-42
2021/01/15 07:14:02;;;;;;;3.67;2.80;;;7.70;82.30;;;;;;5104522;28;20024;-41
2021/01/15 07:16:33;;;;;;;3.90;3.05;;;7.70;82.30;;;;;;5104399;28;20024;-41
2021/01/15 07:19:05;;;;;;;4.35;3.03;;;7.70;82.30;;;;;;5102473;28;20030;-41
2021/01/15 07:21:39;;;;;;;4.18;3.40;;;7.70;82.30;;;;;;5104307;28;20551;-41
2021/01/15 07:24:09;;;;;;;3.42;2.80;;;7.70;82.30;;;;;;5104488;28;20057;-41
2021/01/15 07:26:41;;;;;;;3.38;2.83;;;7.70;82.30;;;;;;5104331;28;20029;-41
2021/01/15 07:29:08;;;;;;;3.70;3.05;;;7.70;82.30;;;;;;5103955;28;20515;-41
2021/01/15 07:31:37;;;;;;;4.28;3.15;;;7.70;82.30;;;;;;5102905;28;20035;-41
2021/01/15 07:34:03;;;;;;;3.90;3.13;;;7.60;82.30;;;;;;5104297;28;20032;-41
2021/01/15 07:36:39;;;;;;;4.32;3.47;;;7.70;82.40;;;;;;5103017;28;20130;-41
2021/01/15 07:39:15;;;;;;;4.18;3.10;;;7.60;82.30;;;;;;5103825;28;20016;-41
2021/01/15 07:41:48;;;;;;;4.45;3.65;;;7.60;82.30;;;;;;5099660;28;20025;-41
2021/01/15 07:44:23;;;;;;;4.47;3.30;;;7.60;82.30;;;;;;5083851;28;20036;-41
2021/01/15 07:46:50;;;;;;;4.13;3.13;;;7.60;82.40;;;;;;5083612;28;20027;-41
2021/01/15 07:49:16;;;;;;;;;;;7.60;82.40;;;;;;5083834;28;20025;-41
2021/01/15 07:51:42;;;;;;;4.68;3.20;;;7.60;82.30;;;;;;5083832;28;19909;-41
2021/01/15 07:54:08;;;;;;;3.33;2.83;;;7.60;82.40;;;;;;5083850;28;20603;-41
2021/01/15 07:56:35;;;;;;;4.80;3.33;;;7.60;82.40;;;;;;5083447;28;20037;-42
2021/01/15 07:59:02;;;;;;;4.97;3.58;;;7.60;82.50;;;;;;5083441;28;20030;-41
2021/01/15 08:01:28;;;;;;;4.28;3.33;;;7.50;82.40;;;;;;5083251;28;20033;-41
2021/01/15 08:03:56;;;;;;;4.00;3.30;;;7.60;82.40;;;;;;5083693;28;20157;-41
2021/01/15 08:06:22;;;;;;;4.60;3.40;;;7.50;82.40;;;;;;5083876;28;20441;-41
2021/01/15 08:09:05;;;;;;;3.20;2.73;;;7.60;82.40;;;;;;5083605;28;20031;-41
2021/01/15 08:11:32;;;;;;;4.80;3.28;;;7.50;82.40;;;;;;5085972;28;20028;-41
2021/01/15 08:14:17;;;;;;;4.35;3.22;;;7.50;82.40;;;;;;5103692;28;20028;-41
2021/01/15 08:16:44;;;;;;;3.83;3.00;;;7.50;82.40;;;;;;5105386;28;20058;-41
2021/01/15 08:19:12;;;;;;;3.85;3.00;;;7.50;82.40;;;;;;5107442;28;20362;-41
2021/01/15 08:21:40;;;;;;;3.15;2.80;;;7.50;82.40;;;;;;5107748;28;20786;-41
2021/01/15 08:24:06;;;;;;;4.05;3.30;;;7.50;82.40;;;;;;5107725;28;20042;-41
2021/01/15 08:26:32;;;;;;;4.17;3.30;;;7.50;82.40;;;;;;5107553;28;20100;-41
2021/01/15 08:28:58;;;;;;;5.13;3.38;;;7.50;82.50;;;;;;5107488;28;20078;-42
2021/01/15 08:31:24;;;;;;;3.95;3.35;;;7.40;82.40;;;;;;5107097;28;20062;-41
2021/01/15 08:34:11;;;;;;;3.92;3.10;;;7.50;82.50;;;;;;5107511;28;20027;-41
2021/01/15 08:36:58;;;;;;;3.95;3.08;;;7.40;82.40;;;;;;5098136;28;20028;-42
2021/01/15 08:39:24;;;;;;;4.68;3.42;;;7.40;82.40;;;;;;5086705;28;20561;-41
2021/01/15 08:42:00;;;;;;;4.90;3.80;;;7.40;82.50;;;;;;5087510;28;20560;-41
2021/01/15 08:44:34;;;;;;;4.03;3.40;;;7.40;82.50;;;;;;5087030;28;20028;-42
2021/01/15 08:47:04;;;;;;;4.55;3.22;;;7.40;82.50;;;;;;5085614;28;20020;-41
2021/01/15 08:49:31;;;;;;;4.07;3.10;;;7.40;82.50;;;;;;5086313;28;20028;-42
2021/01/15 08:51:57;;;;;;;3.78;2.88;;;7.40;82.50;;;;;;5086781;28;20063;-41
2021/01/15 08:54:23;;;;;;;4.70;3.30;;;7.40;82.50;;;;;;5068965;28;20096;-41
2021/01/15 08:56:50;;;;;;;3.97;3.22;;;7.40;82.50;;;;;;5085337;28;20311;-42
2021/01/15 08:59:29;;;;;;;4.37;3.13;;;7.40;82.50;;;;;;5073696;28;20044;-41
2021/01/15 09:02:00;;;;;;;3.90;3.10;;;7.40;82.50;;;;;;5086334;28;20265;-41
2021/01/15 09:04:28;;;;;;;4.55;3.40;;;7.40;82.60;;;;;;5086456;28;20048;-42
2021/01/15 09:06:54;;;;;;;3.90;3.03;;;7.40;82.50;;;;;;5085480;28;20028;-41
2021/01/15 09:09:21;;;;;;;4.47;3.05;;;7.40;82.50;;;;;;5089851;28;20032;-42
2021/01/15 09:11:51;;;;;;;4.68;3.30;;;7.40;82.50;;;;;;5090919;28;20043;-41
2021/01/15 09:14:24;;;;;;;4.07;3.03;;;7.40;82.50;;;;;;5106785;28;20028;-42
2021/01/15 09:16:52;;;;;;;3.65;2.97;;;7.40;82.50;;;;;;5106698;28;20048;-42
2021/01/15 09:19:18;;;;;;;4.45;3.40;;;7.40;82.60;;;;;;5106495;28;20028;-42
2021/01/15 09:21:51;;;;;;;4.63;3.53;;;7.40;82.60;;;;;;5106209;28;20070;-41
2021/01/15 09:24:18;;;;;;;3.92;3.10;;;7.40;82.50;;;;;;5105796;28;20024;-41
2021/01/15 09:26:44;;;;;;;4.65;3.38;;;7.30;82.50;;;;;;5085729;28;20027;-41
2021/01/15 09:29:11;;;;;;;3.80;2.87;;;7.30;82.50;;;;;;5084888;28;20111;-41
2021/01/15 09:31:41;;;;;;;3.75;3.22;;;7.30;82.50;;;;;;5085593;28;20013;-42
2021/01/15 09:34:10;;;;;;;4.35;3.38;;;7.30;82.50;;;;;;5084684;28;20053;-42
2021/01/15 09:36:39;;;;;;;4.50;3.28;;;7.30;82.50;;;;;;5084773;28;20089;-42
2021/01/15 09:39:06;;;;;;;4.50;3.40;;;7.40;82.50;;;;;;5084594;28;20032;-41
2021/01/15 09:41:32;;;;;;;4.00;3.13;;;7.40;82.60;;;;;;5088283;28;20035;-41
2021/01/15 09:43:58;;;;;;;4.40;3.20;;;7.30;82.50;;;;;;5106258;28;20027;-41
2021/01/15 09:46:26;;;;;;;3.67;2.92;;;7.40;82.60;;;;;;5106070;28;20061;-42
2021/01/15 09:48:53;;;;;;;3.88;3.22;;;7.30;82.50;;;;;;5105869;28;20025;-42
2021/01/15 09:51:26;;;;;;;4.75;3.22;;;7.40;82.50;;;;;;5105435;28;20043;-41
2021/01/15 09:53:56;;;;;;;3.90;3.00;;;7.30;82.50;;;;;;5085412;28;20025;-41
2021/01/15 09:56:29;;;;;;;3.25;2.92;;;7.30;82.40;;;;;;5084312;28;20033;-41
2021/01/15 09:58:59;;;;;;;3.33;3.03;;;7.30;82.40;;;;;;5084381;28;20029;-41
2021/01/15 10:01:26;;;;;;;4.00;3.38;;;7.40;82.50;;;;;;5085298;28;20019;-41
2021/01/15 10:03:53;;;;;;;3.85;3.15;;;7.40;82.50;;;;;;5084100;28;20056;-42
2021/01/15 10:06:19;;;;;;;3.08;2.67;;;7.30;82.40;;;;;;5085523;28;20029;-42
2021/01/15 10:08:46;;;;;;;4.28;3.15;;;7.40;82.40;;;;;;5085432;28;20035;-41
2021/01/15 10:11:25;;;;;;;4.68;3.33;;;7.30;82.40;;;;;;5085725;28;20063;-41
2021/01/15 10:13:54;;;;;;;3.58;3.00;;;7.30;82.40;;;;;;5063871;28;20033;-41
2021/01/15 10:16:21;;;;;;;3.75;3.03;;;7.30;82.30;;;;;;5065219;28;20032;-42
2021/01/15 10:18:47;;;;;;;3.30;3.00;;;7.30;82.30;;;;;;5065058;28;20032;-42
2021/01/15 10:21:13;;;;;;;4.07;2.88;;;7.30;83.00;;;;;;5064926;28;20033;-41
2021/01/15 10:23:39;;;;;;;3.15;2.78;;;7.30;82.30;;;;;;5064975;28;20025;-42
2021/01/15 10:26:05;;;;;;;4.10;2.90;;;7.40;82.30;;;;;;5065078;28;20095;-41
2021/01/15 10:28:32;;;;;;;3.88;2.97;;;7.30;82.30;;;;;;5064818;28;20080;-42
2021/01/15 10:30:58;;;;;;;3.20;2.70;;;7.30;82.30;;;;;;5086748;28;20040;-42
2021/01/15 10:33:24;;;;;;;3.05;2.70;;;7.40;82.30;;;;;;5064887;28;20092;-41
2021/01/15 10:35:51;;;;;;;3.72;3.00;;;7.40;82.30;;;;;;5064812;28;20035;-42
2021/01/15 10:38:17;;;;;;;3.40;3.10;;;7.30;82.30;;;;;;5063387;28;20044;-41
2021/01/15 10:40:44;;;;;;;4.68;2.90;;;7.30;82.30;;;;;;5080882;28;20024;-42
2021/01/15 10:43:10;;;;;;;;;;;7.30;82.30;;;;;;5087693;28;20028;-41
2021/01/15 10:45:37;;;;;;;3.65;2.90;;;7.40;82.30;;;;;;5084701;28;19939;-42
2021/01/15 10:48:03;;;;;;;3.37;3.00;;;7.30;82.30;;;;;;5084421;28;20552;-41
2021/01/15 10:50:32;;;;;;;3.70;3.00;;;7.40;82.30;;;;;;5082942;28;20067;-42
2021/01/15 10:52:59;;;;;;;4.10;2.95;;;7.30;82.20;;;;;;5084167;28;20029;-41
2021/01/15 10:55:26;;;;;;;3.22;2.45;;;7.40;82.30;;;;;;5084517;28;20073;-42
2021/01/15 10:57:52;;;;;;;;;;;7.30;82.20;;;;;;5084310;28;20051;-41
2021/01/15 11:00:19;;;;;;;3.47;2.78;;;7.30;82.20;;;;;;5084388;28;19947;-42
2021/01/15 11:02:51;;;;;;;3.85;3.03;;;7.40;82.30;;;;;;5081274;28;20028;-41
2021/01/15 11:05:17;;;;;;;3.78;2.63;;;7.30;82.20;;;;;;5084204;28;20025;-42
2021/01/15 11:07:45;;;;;;;3.63;2.50;;;7.30;82.20;;;;;;5083038;28;20119;-42
2021/01/15 11:10:12;;;;;;;3.35;2.95;;;7.30;82.20;;;;;;5084691;28;20043;-42
2021/01/15 11:12:39;;;;;;;3.85;3.03;;;7.40;82.20;;;;;;5095292;28;20610;-42
2021/01/15 11:15:06;;;;;;;4.07;3.25;;;7.40;82.30;;;;;;5092207;28;20127;-42
2021/01/15 11:17:32;;;;;;;3.08;2.65;;;7.40;82.30;;;;;;5084117;28;20912;-42
2021/01/15 11:19:59;;;;;;;3.22;2.20;;;7.40;82.20;;;;;;5084225;28;20038;-42
2021/01/15 11:22:25;;;;;;;3.83;2.70;;;7.40;82.90;;;;;;5083720;28;20046;-42
2021/01/15 11:24:52;;;;;;;4.15;2.88;;;7.40;82.20;;;;;;5084116;28;20173;-42
2021/01/15 11:27:18;;;;;;;3.60;2.70;;;7.40;82.20;;;;;;5083865;28;20031;-41
2021/01/15 11:29:44;;;;;;;2.97;2.42;;;7.40;82.20;;;;;;5084086;28;20052;-42
2021/01/15 11:32:10;;;;;;;3.50;2.85;;;7.40;82.20;;;;;;5083625;28;20471;-41
2021/01/15 11:34:36;;;;;;;3.22;2.90;;;7.40;82.20;;;;;;5083868;28;20035;-42
2021/01/15 11:37:03;;;;;;;3.08;2.78;;;7.40;82.20;;;;;;5083743;28;20024;-41
2021/01/15 11:39:29;;;;;;;2.78;2.08;;;7.40;82.20;;;;;;5082650;28;20020;-42
2021/01/15 11:41:55;;;;;;;4.00;2.83;;;7.40;82.10;;;;;;5089490;28;20020;-42
2021/01/15 11:44:21;;;;;;;2.67;2.30;;;7.40;82.10;;;;;;5104184;28;20036;-42
2021/01/15 11:46:47;;;;;;;3.65;2.75;;;7.40;82.10;;;;;;5102748;28;20102;-42
2021/01/15 11:49:13;;;;;;;4.32;3.17;;;7.40;82.10;;;;;;5103944;28;20115;-42
2021/01/15 11:51:40;;;;;;;3.63;2.55;;;7.40;82.10;;;;;;5098652;28;20039;-43
2021/01/15 11:54:16;;;;;;;3.22;2.80;;;7.40;82.10;;;;;;5087796;28;20052;-41
2021/01/15 11:56:42;;;;;;;3.42;2.67;;;7.40;82.10;;;;;;5087859;28;20405;-42
2021/01/15 11:59:08;;;;;;;3.65;3.08;;;7.40;82.10;;;;;;5087821;28;20021;-42
2021/01/15 12:01:34;;;;;;;4.40;2.70;;;7.50;82.10;;;;;;5087710;28;20035;-42
2021/01/15 12:04:00;;;;;;;3.40;2.70;;;7.50;82.10;;;;;;5086101;28;20057;-41
2021/01/15 12:06:27;;;;;;;3.10;2.45;;;7.40;82.10;;;;;;5087427;28;20043;-42
2021/01/15 12:08:53;;;;;;;2.92;2.40;;;7.50;82.10;;;;;;5087635;28;20082;-41
2021/01/15 12:11:19;;;;;;;3.00;2.65;;;7.40;82.10;;;;;;5088541;28;20044;-42
2021/01/15 12:13:46;;;;;;;2.80;2.60;;;7.40;82.10;;;;;;5107547;28;20396;-42
2021/01/15 12:16:12;;;;;;;3.53;2.45;;;7.50;82.10;;;;;;5107984;28;20095;-42
2021/01/15 12:18:39;;;;;;;3.35;2.60;;;7.50;82.10;;;;;;5107770;28;20099;-42
2021/01/15 12:21:05;;;;;;;3.72;2.85;;;7.50;82.20;;;;;;5107833;28;20035;-42
2021/01/15 12:23:31;;;;;;;2.75;2.47;;;7.40;82.10;;;;;;5107301;28;20047;-42
2021/01/15 12:25:57;;;;;;;3.50;3.00;;;7.50;82.10;;;;;;5107758;28;20031;-41
2021/01/15 12:28:23;;;;;;;3.28;2.65;;;7.50;82.10;;;;;;5106385;28;20024;-42
2021/01/15 12:30:53;;;;;;;2.50;2.30;;;7.50;82.20;;;;;;5107426;28;20036;-41
2021/01/15 12:33:20;;;;;;;3.05;2.20;;;7.50;82.80;;;;;;5107247;28;20034;-42
2021/01/15 12:35:48;;;;;;;2.00;1.77;;;7.50;82.20;;;;;;5105968;28;20041;-41
2021/01/15 12:38:19;;;;;;;3.72;2.97;;;7.50;82.10;;;;;;5102233;28;20027;-42
2021/01/15 12:40:46;;;;;;;3.05;2.60;;;7.50;82.10;;;;;;5087572;28;20025;-42
2021/01/15 12:43:12;;;;;;;3.05;2.70;;;7.50;82.20;;;;;;5085214;28;20028;-42
2021/01/15 12:45:40;;;;;;;2.85;2.38;;;7.50;82.20;;;;;;5086986;28;20538;-41
2021/01/15 12:48:07;;;;;;;2.80;2.22;;;7.50;82.10;;;;;;5086753;28;20020;-42
2021/01/15 12:50:33;;;;;;;3.70;2.95;;;7.50;82.20;;;;;;5086748;28;20112;-42
2021/01/15 12:52:59;;;;;;;3.67;2.80;;;7.50;82.20;;;;;;5086532;28;20029;-41
2021/01/15 12:55:26;;;;;;;2.70;2.45;;;7.50;82.20;;;;;;5086721;28;20050;-42
2021/01/15 12:57:56;;;;;;;3.47;2.93;;;7.50;82.20;;;;;;5086514;28;20096;-42
2021/01/15 13:00:23;;;;;;;3.08;2.53;;;7.50;82.20;;;;;;5086671;28;20043;-42
2021/01/15 13:02:49;;;;;;;2.95;2.38;;;7.50;82.20;;;;;;5085938;28;20024;-42
2021/01/15 13:05:15;;;;;;;3.10;2.50;;;7.50;82.20;;;;;;5086468;28;20098;-42
2021/01/15 13:07:42;;;;;;;3.30;2.40;;;7.50;82.10;;;;;;5086567;28;20056;-42